sensor_id;sensor_type;location;lat;lon;timestamp;P1;durP1;ratioP1;P2;durP2;ratioP2
13611;SDS011;6877;51.436;6.774;2023-07-13T00:01:17;4.13;;;2.15;;
13611;SDS011;6877;51.436;6.774;2023-07-13T00:03:44;7.05;;;2.17;;
13611;SDS011;6877;51.436;6.774;2023-07-13T00:06:10;6.68;;;2.67;;
13611;SDS011;6877;51.436;6.774;2023-07-13T00:08:37;6.18;;;2.55;;
13611;SDS011;6877;51.436;6.774;2023-07-13T00:11:03;6.60;;;1.88;;
13611;SDS011;6877;51.436;6.774;2023-07-13T00:13:35;5.90;;;1.98;;
13611;SDS011;6877;51.436;6.774;2023-07-13T00:16:04;3.05;;;1.77;;
13611;SDS011;6877;51.436;6.774;2023-07-13T00:18:31;11.10;;;3.15;;
13611;SDS011;6877;51.436;6.774;2023-07-13T00:20:57;3.08;;;2.03;;
13611;SDS011;6877;51.436;6.774;2023-07-13T00:23:31;4.53;;;2.50;;
13611;SDS011;6877;51.436;6.774;2023-07-13T00:26:08;2.88;;;2.03;;
13611;SDS011;6877;51.436;6.774;2023-07-13T00:28:41;6.72;;;1.70;;
13611;SDS011;6877;51.436;6.774;2023-07-13T00:31:13;7.07;;;2.30;;
13611;SDS011;6877;51.436;6.774;2023-07-13T00:33:43;3.03;;;1.60;;
13611;SDS011;6877;51.436;6.774;2023-07-13T00:36:10;6.72;;;2.38;;
13611;SDS011;6877;51.436;6.774;2023-07-13T00:38:37;8.40;;;2.13;;
13611;SDS011;6877;51.436;6.774;2023-07-13T00:41:08;6.18;;;2.15;;
13611;SDS011;6877;51.436;6.774;2023-07-13T00:43:35;6.05;;;1.30;;
13611;SDS011;6877;51.436;6.774;2023-07-13T00:46:13;6.10;;;1.80;;
13611;SDS011;6877;51.436;6.774;2023-07-13T00:48:44;4.10;;;1.67;;
13611;SDS011;6877;51.436;6.774;2023-07-13T00:51:13;4.38;;;1.85;;
13611;SDS011;6877;51.436;6.774;2023-07-13T00:53:52;3.33;;;1.60;;
13611;SDS011;6877;51.436;6.774;2023-07-13T00:56:20;5.15;;;2.03;;
13611;SDS011;6877;51.436;6.774;2023-07-13T00:58:52;7.70;;;2.63;;
13611;SDS011;6877;51.436;6.774;2023-07-13T01:01:24;2.88;;;1.83;;
13611;SDS011;6877;51.436;6.774;2023-07-13T01:03:55;7.00;;;2.20;;
13611;SDS011;6877;51.436;6.774;2023-07-13T01:06:23;4.55;;;1.98;;
13611;SDS011;6877;51.436;6.774;2023-07-13T01:08:49;4.75;;;2.33;;
13611;SDS011;6877;51.436;6.774;2023-07-13T01:11:21;4.40;;;2.38;;
13611;SDS011;6877;51.436;6.774;2023-07-13T01:13:48;5.95;;;2.75;;
13611;SDS011;6877;51.436;6.774;2023-07-13T01:16:33;3.05;;;2.60;;
13611;SDS011;6877;51.436;6.774;2023-07-13T01:19:02;5.18;;;2.10;;
13611;SDS011;6877;51.436;6.774;2023-07-13T01:21:32;3.80;;;2.15;;
13611;SDS011;6877;51.436;6.774;2023-07-13T01:24:04;9.93;;;2.20;;
13611;SDS011;6877;51.436;6.774;2023-07-13T01:26:36;5.70;;;2.30;;
13611;SDS011;6877;51.436;6.774;2023-07-13T01:29:07;4.50;;;1.92;;
13611;SDS011;6877;51.436;6.774;2023-07-13T01:31:34;5.25;;;2.75;;
13611;SDS011;6877;51.436;6.774;2023-07-13T01:34:01;4.88;;;2.60;;
13611;SDS011;6877;51.436;6.774;2023-07-13T01:36:27;6.60;;;2.20;;
13611;SDS011;6877;51.436;6.774;2023-07-13T01:38:59;5.07;;;2.60;;
13611;SDS011;6877;51.436;6.774;2023-07-13T01:41:33;11.57;;;2.58;;
13611;SDS011;6877;51.436;6.774;2023-07-13T01:44:00;11.68;;;3.00;;
13611;SDS011;6877;51.436;6.774;2023-07-13T01:46:28;4.13;;;1.80;;
13611;SDS011;6877;51.436;6.774;2023-07-13T01:48:55;5.70;;;2.35;;
13611;SDS011;6877;51.436;6.774;2023-07-13T01:51:23;5.75;;;2.25;;
13611;SDS011;6877;51.436;6.774;2023-07-13T01:53:55;3.63;;;1.90;;
13611;SDS011;6877;51.436;6.774;2023-07-13T01:56:21;8.55;;;2.35;;
13611;SDS011;6877;51.436;6.774;2023-07-13T01:58:53;4.70;;;1.88;;
13611;SDS011;6877;51.436;6.774;2023-07-13T02:01:24;6.15;;;2.33;;
13611;SDS011;6877;51.436;6.774;2023-07-13T02:03:56;5.40;;;2.47;;
13611;SDS011;6877;51.436;6.774;2023-07-13T02:06:22;2.60;;;2.03;;
13611;SDS011;6877;51.436;6.774;2023-07-13T02:08:53;5.80;;;2.20;;
13611;SDS011;6877;51.436;6.774;2023-07-13T02:11:20;8.15;;;2.20;;
13611;SDS011;6877;51.436;6.774;2023-07-13T02:13:46;4.20;;;2.30;;
13611;SDS011;6877;51.436;6.774;2023-07-13T02:16:18;4.65;;;2.53;;
13611;SDS011;6877;51.436;6.774;2023-07-13T02:18:44;7.30;;;2.20;;
13611;SDS011;6877;51.436;6.774;2023-07-13T02:21:11;5.72;;;1.73;;
13611;SDS011;6877;51.436;6.774;2023-07-13T02:23:42;7.43;;;1.95;;
13611;SDS011;6877;51.436;6.774;2023-07-13T02:26:14;4.25;;;2.03;;
13611;SDS011;6877;51.436;6.774;2023-07-13T02:28:40;10.35;;;2.40;;
13611;SDS011;6877;51.436;6.774;2023-07-13T02:31:11;12.18;;;2.92;;
13611;SDS011;6877;51.436;6.774;2023-07-13T02:33:39;6.72;;;2.33;;
13611;SDS011;6877;51.436;6.774;2023-07-13T02:36:06;4.28;;;2.80;;
13611;SDS011;6877;51.436;6.774;2023-07-13T02:38:33;3.35;;;1.85;;
13611;SDS011;6877;51.436;6.774;2023-07-13T02:41:00;4.97;;;2.25;;
13611;SDS011;6877;51.436;6.774;2023-07-13T02:43:27;6.60;;;2.58;;
13611;SDS011;6877;51.436;6.774;2023-07-13T02:45:59;4.18;;;1.90;;
13611;SDS011;6877;51.436;6.774;2023-07-13T02:48:38;5.20;;;2.33;;
13611;SDS011;6877;51.436;6.774;2023-07-13T02:51:10;8.10;;;2.25;;
13611;SDS011;6877;51.436;6.774;2023-07-13T02:53:36;6.50;;;2.13;;
13611;SDS011;6877;51.436;6.774;2023-07-13T02:56:03;3.90;;;2.00;;
13611;SDS011;6877;51.436;6.774;2023-07-13T02:58:31;6.32;;;2.20;;
13611;SDS011;6877;51.436;6.774;2023-07-13T03:00:57;4.85;;;2.97;;
13611;SDS011;6877;51.436;6.774;2023-07-13T03:03:24;10.88;;;2.30;;
13611;SDS011;6877;51.436;6.774;2023-07-13T03:05:57;6.07;;;2.13;;
13611;SDS011;6877;51.436;6.774;2023-07-13T03:08:26;5.13;;;2.20;;
13611;SDS011;6877;51.436;6.774;2023-07-13T03:10:59;6.85;;;3.42;;
13611;SDS011;6877;51.436;6.774;2023-07-13T03:13:31;11.10;;;3.15;;
13611;SDS011;6877;51.436;6.774;2023-07-13T03:16:02;4.28;;;2.53;;
13611;SDS011;6877;51.436;6.774;2023-07-13T03:18:29;6.32;;;2.90;;
13611;SDS011;6877;51.436;6.774;2023-07-13T03:20:56;8.35;;;2.92;;
13611;SDS011;6877;51.436;6.774;2023-07-13T03:23:28;4.60;;;2.25;;
13611;SDS011;6877;51.436;6.774;2023-07-13T03:26:05;13.68;;;2.97;;
13611;SDS011;6877;51.436;6.774;2023-07-13T03:28:34;6.85;;;3.70;;
13611;SDS011;6877;51.436;6.774;2023-07-13T03:31:08;6.63;;;2.40;;
13611;SDS011;6877;51.436;6.774;2023-07-13T03:33:39;5.07;;;2.35;;
13611;SDS011;6877;51.436;6.774;2023-07-13T03:36:07;5.75;;;2.28;;
13611;SDS011;6877;51.436;6.774;2023-07-13T03:38:35;3.83;;;2.05;;
13611;SDS011;6877;51.436;6.774;2023-07-13T03:41:07;6.85;;;1.83;;
13611;SDS011;6877;51.436;6.774;2023-07-13T03:43:33;5.97;;;2.15;;
13611;SDS011;6877;51.436;6.774;2023-07-13T03:46:05;6.90;;;3.13;;
13611;SDS011;6877;51.436;6.774;2023-07-13T03:48:36;5.95;;;3.58;;
13611;SDS011;6877;51.436;6.774;2023-07-13T03:51:08;7.63;;;2.15;;
13611;SDS011;6877;51.436;6.774;2023-07-13T03:53:38;8.48;;;2.95;;
13611;SDS011;6877;51.436;6.774;2023-07-13T03:56:12;2.22;;;2.03;;
13611;SDS011;6877;51.436;6.774;2023-07-13T03:58:47;6.63;;;2.38;;
13611;SDS011;6877;51.436;6.774;2023-07-13T04:01:15;6.82;;;3.33;;
13611;SDS011;6877;51.436;6.774;2023-07-13T04:03:43;5.03;;;2.30;;
13611;SDS011;6877;51.436;6.774;2023-07-13T04:06:19;4.03;;;2.42;;
13611;SDS011;6877;51.436;6.774;2023-07-13T04:08:49;8.45;;;3.20;;
13611;SDS011;6877;51.436;6.774;2023-07-13T04:11:22;3.72;;;2.50;;
13611;SDS011;6877;51.436;6.774;2023-07-13T04:13:51;7.55;;;2.17;;
13611;SDS011;6877;51.436;6.774;2023-07-13T04:16:22;9.38;;;4.00;;
13611;SDS011;6877;51.436;6.774;2023-07-13T04:18:55;5.40;;;2.60;;
13611;SDS011;6877;51.436;6.774;2023-07-13T04:21:26;5.47;;;2.45;;
13611;SDS011;6877;51.436;6.774;2023-07-13T04:23:59;4.82;;;2.30;;
13611;SDS011;6877;51.436;6.774;2023-07-13T04:26:31;6.50;;;2.50;;
13611;SDS011;6877;51.436;6.774;2023-07-13T04:29:03;5.70;;;2.55;;
13611;SDS011;6877;51.436;6.774;2023-07-13T04:31:30;6.13;;;2.20;;
13611;SDS011;6877;51.436;6.774;2023-07-13T04:33:57;8.60;;;2.53;;
13611;SDS011;6877;51.436;6.774;2023-07-13T04:36:24;5.70;;;2.53;;
13611;SDS011;6877;51.436;6.774;2023-07-13T04:38:58;8.55;;;2.67;;
13611;SDS011;6877;51.436;6.774;2023-07-13T04:41:29;6.30;;;2.63;;
13611;SDS011;6877;51.436;6.774;2023-07-13T04:43:55;9.38;;;2.47;;
13611;SDS011;6877;51.436;6.774;2023-07-13T04:46:22;4.90;;;2.30;;
13611;SDS011;6877;51.436;6.774;2023-07-13T04:48:49;4.95;;;2.80;;
13611;SDS011;6877;51.436;6.774;2023-07-13T04:51:24;5.22;;;2.40;;
13611;SDS011;6877;51.436;6.774;2023-07-13T04:53:55;7.60;;;2.20;;
13611;SDS011;6877;51.436;6.774;2023-07-13T04:56:27;4.43;;;2.40;;
13611;SDS011;6877;51.436;6.774;2023-07-13T04:58:53;9.10;;;3.03;;
13611;SDS011;6877;51.436;6.774;2023-07-13T05:01:20;8.32;;;3.58;;
13611;SDS011;6877;51.436;6.774;2023-07-13T05:03:51;8.13;;;3.20;;
13611;SDS011;6877;51.436;6.774;2023-07-13T05:06:17;18.80;;;3.92;;
13611;SDS011;6877;51.436;6.774;2023-07-13T05:08:49;7.63;;;2.72;;
13611;SDS011;6877;51.436;6.774;2023-07-13T05:11:20;9.77;;;2.97;;
13611;SDS011;6877;51.436;6.774;2023-07-13T05:13:52;10.07;;;2.60;;
13611;SDS011;6877;51.436;6.774;2023-07-13T05:16:24;5.93;;;3.03;;
13611;SDS011;6877;51.436;6.774;2023-07-13T05:18:55;10.85;;;3.72;;
13611;SDS011;6877;51.436;6.774;2023-07-13T05:21:27;5.40;;;3.25;;
13611;SDS011;6877;51.436;6.774;2023-07-13T05:23:58;8.70;;;2.80;;
13611;SDS011;6877;51.436;6.774;2023-07-13T05:26:30;4.93;;;2.97;;
13611;SDS011;6877;51.436;6.774;2023-07-13T05:28:56;9.25;;;3.80;;
13611;SDS011;6877;51.436;6.774;2023-07-13T05:31:22;8.77;;;3.28;;
13611;SDS011;6877;51.436;6.774;2023-07-13T05:33:49;11.52;;;3.83;;
13611;SDS011;6877;51.436;6.774;2023-07-13T05:36:20;8.23;;;3.28;;
13611;SDS011;6877;51.436;6.774;2023-07-13T05:38:52;8.05;;;3.45;;
13611;SDS011;6877;51.436;6.774;2023-07-13T05:41:18;8.35;;;3.30;;
13611;SDS011;6877;51.436;6.774;2023-07-13T05:43:44;11.80;;;3.63;;
13611;SDS011;6877;51.436;6.774;2023-07-13T05:46:11;11.27;;;3.42;;
13611;SDS011;6877;51.436;6.774;2023-07-13T05:48:37;6.15;;;2.83;;
13611;SDS011;6877;51.436;6.774;2023-07-13T05:51:04;13.32;;;4.63;;
13611;SDS011;6877;51.436;6.774;2023-07-13T05:53:35;11.80;;;4.00;;
13611;SDS011;6877;51.436;6.774;2023-07-13T05:56:02;8.30;;;3.08;;
13611;SDS011;6877;51.436;6.774;2023-07-13T05:58:33;11.13;;;3.60;;
13611;SDS011;6877;51.436;6.774;2023-07-13T06:01:10;11.70;;;3.55;;
13611;SDS011;6877;51.436;6.774;2023-07-13T06:03:38;9.13;;;3.63;;
13611;SDS011;6877;51.436;6.774;2023-07-13T06:06:05;5.32;;;3.33;;
13611;SDS011;6877;51.436;6.774;2023-07-13T06:08:33;15.02;;;5.35;;
13611;SDS011;6877;51.436;6.774;2023-07-13T06:11:06;9.88;;;3.55;;
13611;SDS011;6877;51.436;6.774;2023-07-13T06:13:43;9.77;;;2.97;;
13611;SDS011;6877;51.436;6.774;2023-07-13T06:16:15;12.85;;;4.18;;
13611;SDS011;6877;51.436;6.774;2023-07-13T06:18:42;13.40;;;3.75;;
13611;SDS011;6877;51.436;6.774;2023-07-13T06:21:10;7.45;;;4.00;;
13611;SDS011;6877;51.436;6.774;2023-07-13T06:23:44;10.13;;;3.40;;
13611;SDS011;6877;51.436;6.774;2023-07-13T06:26:11;9.73;;;4.10;;
13611;SDS011;6877;51.436;6.774;2023-07-13T06:28:42;9.13;;;3.08;;
13611;SDS011;6877;51.436;6.774;2023-07-13T06:31:10;11.57;;;2.97;;
13611;SDS011;6877;51.436;6.774;2023-07-13T06:33:45;11.52;;;3.38;;
13611;SDS011;6877;51.436;6.774;2023-07-13T06:36:15;6.93;;;3.38;;
13611;SDS011;6877;51.436;6.774;2023-07-13T06:38:47;13.23;;;3.60;;
13611;SDS011;6877;51.436;6.774;2023-07-13T06:41:14;14.05;;;3.80;;
13611;SDS011;6877;51.436;6.774;2023-07-13T06:43:40;7.43;;;3.90;;
13611;SDS011;6877;51.436;6.774;2023-07-13T06:46:07;14.65;;;3.92;;
13611;SDS011;6877;51.436;6.774;2023-07-13T06:48:34;7.45;;;3.38;;
13611;SDS011;6877;51.436;6.774;2023-07-13T06:51:01;9.23;;;3.70;;
13611;SDS011;6877;51.436;6.774;2023-07-13T06:53:28;9.40;;;4.05;;
13611;SDS011;6877;51.436;6.774;2023-07-13T06:56:11;11.27;;;3.72;;
13611;SDS011;6877;51.436;6.774;2023-07-13T06:58:37;9.60;;;3.58;;
13611;SDS011;6877;51.436;6.774;2023-07-13T07:01:04;5.85;;;3.53;;
13611;SDS011;6877;51.436;6.774;2023-07-13T07:03:31;12.98;;;3.92;;
13611;SDS011;6877;51.436;6.774;2023-07-13T07:06:05;12.80;;;3.80;;
13611;SDS011;6877;51.436;6.774;2023-07-13T07:08:43;12.40;;;3.55;;
13611;SDS011;6877;51.436;6.774;2023-07-13T07:11:11;9.20;;;3.28;;
13611;SDS011;6877;51.436;6.774;2023-07-13T07:13:45;10.60;;;3.38;;
13611;SDS011;6877;51.436;6.774;2023-07-13T07:16:12;11.70;;;4.18;;
13611;SDS011;6877;51.436;6.774;2023-07-13T07:18:38;7.47;;;3.60;;
13611;SDS011;6877;51.436;6.774;2023-07-13T07:21:10;8.68;;;3.85;;
13611;SDS011;6877;51.436;6.774;2023-07-13T07:23:37;10.10;;;3.95;;
13611;SDS011;6877;51.436;6.774;2023-07-13T07:26:08;8.60;;;4.13;;
13611;SDS011;6877;51.436;6.774;2023-07-13T07:28:36;15.35;;;5.13;;
13611;SDS011;6877;51.436;6.774;2023-07-13T07:31:02;14.65;;;5.47;;
13611;SDS011;6877;51.436;6.774;2023-07-13T07:33:34;13.13;;;4.32;;
13611;SDS011;6877;51.436;6.774;2023-07-13T07:36:00;8.77;;;4.28;;
13611;SDS011;6877;51.436;6.774;2023-07-13T07:38:27;11.20;;;4.80;;
13611;SDS011;6877;51.436;6.774;2023-07-13T07:40:54;12.40;;;3.95;;
13611;SDS011;6877;51.436;6.774;2023-07-13T07:43:20;12.68;;;4.25;;
13611;SDS011;6877;51.436;6.774;2023-07-13T07:45:52;12.82;;;4.47;;
13611;SDS011;6877;51.436;6.774;2023-07-13T07:48:23;15.95;;;4.53;;
13611;SDS011;6877;51.436;6.774;2023-07-13T07:50:54;19.23;;;5.63;;
13611;SDS011;6877;51.436;6.774;2023-07-13T07:53:21;10.68;;;5.50;;
13611;SDS011;6877;51.436;6.774;2023-07-13T07:55:47;8.80;;;4.63;;
13611;SDS011;6877;51.436;6.774;2023-07-13T07:58:14;16.67;;;5.15;;
13611;SDS011;6877;51.436;6.774;2023-07-13T08:00:46;17.05;;;5.07;;
13611;SDS011;6877;51.436;6.774;2023-07-13T08:03:13;10.00;;;3.97;;
13611;SDS011;6877;51.436;6.774;2023-07-13T08:05:39;9.43;;;4.43;;
13611;SDS011;6877;51.436;6.774;2023-07-13T08:08:06;9.48;;;4.13;;
13611;SDS011;6877;51.436;6.774;2023-07-13T08:10:34;7.25;;;3.72;;
13611;SDS011;6877;51.436;6.774;2023-07-13T08:13:02;11.07;;;4.30;;
13611;SDS011;6877;51.436;6.774;2023-07-13T08:15:29;9.60;;;4.10;;
13611;SDS011;6877;51.436;6.774;2023-07-13T08:18:00;15.93;;;3.78;;
13611;SDS011;6877;51.436;6.774;2023-07-13T08:20:26;9.90;;;4.25;;
13611;SDS011;6877;51.436;6.774;2023-07-13T08:22:58;14.30;;;4.32;;
13611;SDS011;6877;51.436;6.774;2023-07-13T08:25:29;9.30;;;4.00;;
13611;SDS011;6877;51.436;6.774;2023-07-13T08:28:02;5.20;;;2.67;;
13611;SDS011;6877;51.436;6.774;2023-07-13T08:30:29;5.18;;;2.70;;
13611;SDS011;6877;51.436;6.774;2023-07-13T08:33:00;8.70;;;3.05;;
13611;SDS011;6877;51.436;6.774;2023-07-13T08:35:27;8.90;;;3.60;;
13611;SDS011;6877;51.436;6.774;2023-07-13T08:37:54;7.25;;;3.60;;
13611;SDS011;6877;51.436;6.774;2023-07-13T08:40:23;6.20;;;2.60;;
13611;SDS011;6877;51.436;6.774;2023-07-13T08:42:55;12.18;;;3.10;;
13611;SDS011;6877;51.436;6.774;2023-07-13T08:46:32;7.00;;;2.88;;
13611;SDS011;6877;51.436;6.774;2023-07-13T08:48:36;10.00;;;3.75;;
13611;SDS011;6877;51.436;6.774;2023-07-13T08:51:17;10.48;;;3.38;;
13611;SDS011;6877;51.436;6.774;2023-07-13T08:53:51;13.85;;;4.28;;
13611;SDS011;6877;51.436;6.774;2023-07-13T08:56:24;8.18;;;2.80;;
13611;SDS011;6877;51.436;6.774;2023-07-13T08:58:55;6.22;;;2.92;;
13611;SDS011;6877;51.436;6.774;2023-07-13T09:04:18;4.72;;;2.75;;
13611;SDS011;6877;51.436;6.774;2023-07-13T09:14:56;11.73;;;3.88;;
13611;SDS011;6877;51.436;6.774;2023-07-13T09:17:40;7.63;;;3.45;;
13611;SDS011;6877;51.436;6.774;2023-07-13T09:20:22;6.78;;;3.63;;
13611;SDS011;6877;51.436;6.774;2023-07-13T09:22:51;13.07;;;4.05;;
13611;SDS011;6877;51.436;6.774;2023-07-13T09:25:29;11.55;;;3.67;;
13611;SDS011;6877;51.436;6.774;2023-07-13T09:30:50;7.75;;;2.70;;
13611;SDS011;6877;51.436;6.774;2023-07-13T09:33:20;11.15;;;3.13;;
13611;SDS011;6877;51.436;6.774;2023-07-13T09:35:47;6.05;;;2.55;;
13611;SDS011;6877;51.436;6.774;2023-07-13T09:38:19;8.80;;;2.60;;
13611;SDS011;6877;51.436;6.774;2023-07-13T09:41:04;9.35;;;2.47;;
13611;SDS011;6877;51.436;6.774;2023-07-13T09:44:06;6.63;;;3.08;;
13611;SDS011;6877;51.436;6.774;2023-07-13T09:46:40;4.85;;;2.50;;
13611;SDS011;6877;51.436;6.774;2023-07-13T09:49:13;11.27;;;3.10;;
13611;SDS011;6877;51.436;6.774;2023-07-13T09:51:45;6.85;;;2.75;;
13611;SDS011;6877;51.436;6.774;2023-07-13T09:54:20;4.57;;;2.80;;
13611;SDS011;6877;51.436;6.774;2023-07-13T09:56:48;5.13;;;2.42;;
13611;SDS011;6877;51.436;6.774;2023-07-13T09:59:35;7.47;;;2.50;;
13611;SDS011;6877;51.436;6.774;2023-07-13T10:02:27;5.72;;;2.63;;
13611;SDS011;6877;51.436;6.774;2023-07-13T10:07:31;8.38;;;4.00;;
13611;SDS011;6877;51.436;6.774;2023-07-13T10:09:59;7.07;;;2.85;;
13611;SDS011;6877;51.436;6.774;2023-07-13T10:12:28;6.40;;;2.15;;
13611;SDS011;6877;51.436;6.774;2023-07-13T10:14:59;8.95;;;3.08;;
13611;SDS011;6877;51.436;6.774;2023-07-13T10:17:29;4.47;;;2.50;;
13611;SDS011;6877;51.436;6.774;2023-07-13T10:19:58;8.18;;;3.53;;
13611;SDS011;6877;51.436;6.774;2023-07-13T10:24:57;5.32;;;3.35;;
13611;SDS011;6877;51.436;6.774;2023-07-13T10:27:33;11.65;;;3.00;;
13611;SDS011;6877;51.436;6.774;2023-07-13T10:32:35;13.77;;;2.70;;
13611;SDS011;6877;51.436;6.774;2023-07-13T10:35:09;9.23;;;3.25;;
13611;SDS011;6877;51.436;6.774;2023-07-13T10:40:23;5.78;;;2.70;;
13611;SDS011;6877;51.436;6.774;2023-07-13T10:43:01;7.30;;;1.95;;
13611;SDS011;6877;51.436;6.774;2023-07-13T10:45:34;8.10;;;3.03;;
13611;SDS011;6877;51.436;6.774;2023-07-13T10:48:10;8.20;;;2.40;;
13611;SDS011;6877;51.436;6.774;2023-07-13T10:50:40;6.75;;;2.30;;
13611;SDS011;6877;51.436;6.774;2023-07-13T10:53:19;8.27;;;3.25;;
13611;SDS011;6877;51.436;6.774;2023-07-13T10:58:22;9.50;;;3.28;;
13611;SDS011;6877;51.436;6.774;2023-07-13T11:00:51;8.00;;;2.60;;
13611;SDS011;6877;51.436;6.774;2023-07-13T11:03:23;9.50;;;2.40;;
13611;SDS011;6877;51.436;6.774;2023-07-13T11:06:04;6.47;;;2.65;;
13611;SDS011;6877;51.436;6.774;2023-07-13T11:08:36;6.25;;;2.40;;
13611;SDS011;6877;51.436;6.774;2023-07-13T11:14:03;5.07;;;2.63;;
13611;SDS011;6877;51.436;6.774;2023-07-13T11:16:35;7.95;;;2.67;;
13611;SDS011;6877;51.436;6.774;2023-07-13T11:21:29;6.30;;;2.63;;
13611;SDS011;6877;51.436;6.774;2023-07-13T11:24:14;10.52;;;2.28;;
13611;SDS011;6877;51.436;6.774;2023-07-13T11:29:32;7.30;;;2.63;;
13611;SDS011;6877;51.436;6.774;2023-07-13T11:32:20;5.03;;;2.22;;
13611;SDS011;6877;51.436;6.774;2023-07-13T11:34:53;3.83;;;1.65;;
13611;SDS011;6877;51.436;6.774;2023-07-13T11:37:26;7.20;;;2.58;;
13611;SDS011;6877;51.436;6.774;2023-07-13T11:39:56;5.28;;;1.80;;
13611;SDS011;6877;51.436;6.774;2023-07-13T11:42:22;6.63;;;2.92;;
13611;SDS011;6877;51.436;6.774;2023-07-13T11:44:54;9.80;;;3.22;;
13611;SDS011;6877;51.436;6.774;2023-07-13T11:47:22;10.20;;;3.08;;
13611;SDS011;6877;51.436;6.774;2023-07-13T11:49:52;4.95;;;1.75;;
13611;SDS011;6877;51.436;6.774;2023-07-13T11:52:23;7.95;;;2.42;;
13611;SDS011;6877;51.436;6.774;2023-07-13T11:55:00;4.75;;;2.00;;
13611;SDS011;6877;51.436;6.774;2023-07-13T11:57:29;3.20;;;1.92;;
13611;SDS011;6877;51.436;6.774;2023-07-13T12:00:22;5.60;;;2.45;;
13611;SDS011;6877;51.436;6.774;2023-07-13T12:02:57;4.93;;;2.20;;
13611;SDS011;6877;51.436;6.774;2023-07-13T12:05:31;7.80;;;2.28;;
13611;SDS011;6877;51.436;6.774;2023-07-13T12:08:10;3.70;;;1.83;;
13611;SDS011;6877;51.436;6.774;2023-07-13T12:10:39;4.50;;;2.03;;
13611;SDS011;6877;51.436;6.774;2023-07-13T12:13:08;9.52;;;2.45;;
13611;SDS011;6877;51.436;6.774;2023-07-13T12:15:43;3.78;;;2.00;;
13611;SDS011;6877;51.436;6.774;2023-07-13T12:18:18;5.65;;;2.10;;
13611;SDS011;6877;51.436;6.774;2023-07-13T12:20:53;7.03;;;3.20;;
13611;SDS011;6877;51.436;6.774;2023-07-13T12:25:57;4.65;;;2.05;;
13611;SDS011;6877;51.436;6.774;2023-07-13T12:31:23;6.72;;;2.22;;
13611;SDS011;6877;51.436;6.774;2023-07-13T12:33:56;4.07;;;1.85;;
13611;SDS011;6877;51.436;6.774;2023-07-13T12:36:58;7.13;;;2.83;;
13611;SDS011;6877;51.436;6.774;2023-07-13T12:39:36;9.18;;;2.58;;
13611;SDS011;6877;51.436;6.774;2023-07-13T12:42:21;9.93;;;2.55;;
13611;SDS011;6877;51.436;6.774;2023-07-13T12:44:56;11.75;;;1.98;;
13611;SDS011;6877;51.436;6.774;2023-07-13T12:47:24;4.15;;;2.35;;
13611;SDS011;6877;51.436;6.774;2023-07-13T12:49:54;6.53;;;2.85;;
13611;SDS011;6877;51.436;6.774;2023-07-13T12:52:24;6.82;;;2.58;;
13611;SDS011;6877;51.436;6.774;2023-07-13T12:57:38;6.32;;;2.50;;
13611;SDS011;6877;51.436;6.774;2023-07-13T13:00:13;7.57;;;3.15;;
13611;SDS011;6877;51.436;6.774;2023-07-13T13:02:53;3.33;;;2.42;;
13611;SDS011;6877;51.436;6.774;2023-07-13T13:05:22;9.45;;;2.92;;
13611;SDS011;6877;51.436;6.774;2023-07-13T13:07:57;2.67;;;2.30;;
13611;SDS011;6877;51.436;6.774;2023-07-13T13:10:23;9.77;;;2.75;;
13611;SDS011;6877;51.436;6.774;2023-07-13T13:12:55;11.07;;;2.50;;
13611;SDS011;6877;51.436;6.774;2023-07-13T13:15:21;9.88;;;2.55;;
13611;SDS011;6877;51.436;6.774;2023-07-13T13:17:49;4.05;;;2.17;;
13611;SDS011;6877;51.436;6.774;2023-07-13T13:20:17;3.95;;;2.45;;
13611;SDS011;6877;51.436;6.774;2023-07-13T13:22:47;8.60;;;2.35;;
13611;SDS011;6877;51.436;6.774;2023-07-13T13:25:19;8.32;;;2.90;;
13611;SDS011;6877;51.436;6.774;2023-07-13T13:27:50;3.60;;;1.88;;
13611;SDS011;6877;51.436;6.774;2023-07-13T13:30:17;6.88;;;2.30;;
13611;SDS011;6877;51.436;6.774;2023-07-13T13:32:49;18.95;;;2.70;;
13611;SDS011;6877;51.436;6.774;2023-07-13T13:35:16;5.05;;;1.98;;
13611;SDS011;6877;51.436;6.774;2023-07-13T13:37:49;6.10;;;2.83;;
13611;SDS011;6877;51.436;6.774;2023-07-13T13:40:21;6.43;;;2.72;;
13611;SDS011;6877;51.436;6.774;2023-07-13T13:42:54;5.47;;;1.90;;
13611;SDS011;6877;51.436;6.774;2023-07-13T13:45:22;3.47;;;2.00;;
13611;SDS011;6877;51.436;6.774;2023-07-13T13:47:55;3.47;;;2.35;;
13611;SDS011;6877;51.436;6.774;2023-07-13T13:50:21;5.22;;;2.60;;
13611;SDS011;6877;51.436;6.774;2023-07-13T13:52:53;3.42;;;1.90;;
13611;SDS011;6877;51.436;6.774;2023-07-13T13:55:20;3.00;;;1.92;;
13611;SDS011;6877;51.436;6.774;2023-07-13T13:57:50;6.30;;;2.25;;
13611;SDS011;6877;51.436;6.774;2023-07-13T14:00:21;5.93;;;1.85;;
13611;SDS011;6877;51.436;6.774;2023-07-13T14:02:48;6.40;;;2.95;;
13611;SDS011;6877;51.436;6.774;2023-07-13T14:05:23;9.02;;;3.70;;
13611;SDS011;6877;51.436;6.774;2023-07-13T14:07:54;5.85;;;3.30;;
13611;SDS011;6877;51.436;6.774;2023-07-13T14:10:21;9.43;;;3.85;;
13611;SDS011;6877;51.436;6.774;2023-07-13T14:12:50;13.02;;;3.63;;
13611;SDS011;6877;51.436;6.774;2023-07-13T14:15:28;16.60;;;4.25;;
13611;SDS011;6877;51.436;6.774;2023-07-13T14:18:01;8.38;;;3.67;;
13611;SDS011;6877;51.436;6.774;2023-07-13T14:20:28;11.77;;;4.65;;
13611;SDS011;6877;51.436;6.774;2023-07-13T14:23:01;14.40;;;4.72;;
13611;SDS011;6877;51.436;6.774;2023-07-13T14:25:27;10.23;;;5.53;;
13611;SDS011;6877;51.436;6.774;2023-07-13T14:27:55;10.48;;;5.47;;
13611;SDS011;6877;51.436;6.774;2023-07-13T14:30:29;12.82;;;4.63;;
13611;SDS011;6877;51.436;6.774;2023-07-13T14:32:56;7.60;;;3.90;;
13611;SDS011;6877;51.436;6.774;2023-07-13T14:35:22;5.50;;;3.60;;
13611;SDS011;6877;51.436;6.774;2023-07-13T14:37:54;6.00;;;3.22;;
13611;SDS011;6877;51.436;6.774;2023-07-13T14:40:28;11.57;;;4.07;;
13611;SDS011;6877;51.436;6.774;2023-07-13T14:42:56;5.72;;;4.10;;
13611;SDS011;6877;51.436;6.774;2023-07-13T14:45:23;4.78;;;2.95;;
13611;SDS011;6877;51.436;6.774;2023-07-13T14:47:55;4.97;;;3.05;;
13611;SDS011;6877;51.436;6.774;2023-07-13T14:50:27;4.97;;;3.17;;
13611;SDS011;6877;51.436;6.774;2023-07-13T14:52:58;4.53;;;2.65;;
13611;SDS011;6877;51.436;6.774;2023-07-13T14:55:25;4.38;;;3.05;;
13611;SDS011;6877;51.436;6.774;2023-07-13T14:57:52;7.53;;;3.08;;
13611;SDS011;6877;51.436;6.774;2023-07-13T15:00:19;4.47;;;2.60;;
13611;SDS011;6877;51.436;6.774;2023-07-13T15:02:49;5.35;;;2.95;;
13611;SDS011;6877;51.436;6.774;2023-07-13T15:05:20;6.13;;;3.00;;
13611;SDS011;6877;51.436;6.774;2023-07-13T15:07:51;8.02;;;3.13;;
13611;SDS011;6877;51.436;6.774;2023-07-13T15:10:20;5.63;;;3.35;;
13611;SDS011;6877;51.436;6.774;2023-07-13T15:12:56;4.97;;;2.88;;
13611;SDS011;6877;51.436;6.774;2023-07-13T15:15:44;8.60;;;3.92;;
13611;SDS011;6877;51.436;6.774;2023-07-13T15:18:23;9.52;;;2.78;;
13611;SDS011;6877;51.436;6.774;2023-07-13T15:20:56;8.07;;;3.22;;
13611;SDS011;6877;51.436;6.774;2023-07-13T15:23:31;5.20;;;2.97;;
13611;SDS011;6877;51.436;6.774;2023-07-13T15:25:58;4.60;;;2.72;;
13611;SDS011;6877;51.436;6.774;2023-07-13T15:28:24;7.25;;;2.90;;
13611;SDS011;6877;51.436;6.774;2023-07-13T15:30:50;5.68;;;3.05;;
13611;SDS011;6877;51.436;6.774;2023-07-13T15:33:28;4.85;;;3.10;;
13611;SDS011;6877;51.436;6.774;2023-07-13T15:36:01;2.67;;;2.47;;
13611;SDS011;6877;51.436;6.774;2023-07-13T15:38:30;6.00;;;2.60;;
13611;SDS011;6877;51.436;6.774;2023-07-13T15:41:04;4.75;;;2.53;;
13611;SDS011;6877;51.436;6.774;2023-07-13T15:43:42;4.47;;;2.65;;
13611;SDS011;6877;51.436;6.774;2023-07-13T15:46:13;4.45;;;2.35;;
13611;SDS011;6877;51.436;6.774;2023-07-13T15:48:40;6.22;;;3.10;;
13611;SDS011;6877;51.436;6.774;2023-07-13T15:51:09;3.58;;;2.63;;
13611;SDS011;6877;51.436;6.774;2023-07-13T15:53:41;3.55;;;2.42;;
13611;SDS011;6877;51.436;6.774;2023-07-13T15:56:22;8.05;;;2.40;;
13611;SDS011;6877;51.436;6.774;2023-07-13T15:58:56;5.45;;;2.47;;
13611;SDS011;6877;51.436;6.774;2023-07-13T16:01:23;4.40;;;2.20;;
13611;SDS011;6877;51.436;6.774;2023-07-13T16:03:55;5.30;;;2.72;;